sensor_id;sensor_type;location;lat;lon;timestamp;P1;durP1;ratioP1;P2;durP2;ratioP2
32810;SDS011;65470;47.324;8.548;2023-06-26T00:02:01;10.05;;;9.15;;
32810;SDS011;65470;47.324;8.548;2023-06-26T00:04:27;8.85;;;8.05;;
32810;SDS011;65470;47.324;8.548;2023-06-26T00:06:53;9.63;;;8.73;;
32810;SDS011;65470;47.324;8.548;2023-06-26T00:09:18;9.38;;;8.40;;
32810;SDS011;65470;47.324;8.548;2023-06-26T00:11:44;9.30;;;8.40;;
32810;SDS011;65470;47.324;8.548;2023-06-26T00:14:09;9.93;;;9.00;;
32810;SDS011;65470;47.324;8.548;2023-06-26T00:16:35;10.38;;;9.30;;
32810;SDS011;65470;47.324;8.548;2023-06-26T00:19:01;9.32;;;8.43;;
32810;SDS011;65470;47.324;8.548;2023-06-26T00:21:27;9.65;;;8.70;;
32810;SDS011;65470;47.324;8.548;2023-06-26T00:23:52;10.32;;;8.68;;
32810;SDS011;65470;47.324;8.548;2023-06-26T00:26:18;9.82;;;8.93;;
32810;SDS011;65470;47.324;8.548;2023-06-26T00:28:44;10.65;;;9.40;;
32810;SDS011;65470;47.324;8.548;2023-06-26T00:31:09;11.50;;;9.77;;
32810;SDS011;65470;47.324;8.548;2023-06-26T00:33:35;9.85;;;8.85;;
32810;SDS011;65470;47.324;8.548;2023-06-26T00:36:00;10.05;;;9.13;;
32810;SDS011;65470;47.324;8.548;2023-06-26T00:38:26;9.38;;;8.43;;
32810;SDS011;65470;47.324;8.548;2023-06-26T00:40:52;10.85;;;9.23;;
32810;SDS011;65470;47.324;8.548;2023-06-26T00:43:19;10.48;;;9.48;;
32810;SDS011;65470;47.324;8.548;2023-06-26T00:45:45;9.68;;;8.88;;
32810;SDS011;65470;47.324;8.548;2023-06-26T00:48:11;10.35;;;9.25;;
32810;SDS011;65470;47.324;8.548;2023-06-26T00:50:37;9.18;;;8.45;;
32810;SDS011;65470;47.324;8.548;2023-06-26T00:53:03;9.75;;;8.85;;
32810;SDS011;65470;47.324;8.548;2023-06-26T00:55:29;12.18;;;9.18;;
32810;SDS011;65470;47.324;8.548;2023-06-26T00:57:54;9.63;;;8.73;;
32810;SDS011;65470;47.324;8.548;2023-06-26T01:00:21;10.38;;;9.30;;
32810;SDS011;65470;47.324;8.548;2023-06-26T01:02:46;10.35;;;9.35;;
32810;SDS011;65470;47.324;8.548;2023-06-26T01:05:12;12.05;;;9.65;;
32810;SDS011;65470;47.324;8.548;2023-06-26T01:07:46;10.40;;;9.25;;
32810;SDS011;65470;47.324;8.548;2023-06-26T01:10:13;13.65;;;9.18;;
32810;SDS011;65470;47.324;8.548;2023-06-26T01:12:39;12.32;;;9.90;;
32810;SDS011;65470;47.324;8.548;2023-06-26T01:15:05;10.50;;;9.48;;
32810;SDS011;65470;47.324;8.548;2023-06-26T01:17:31;11.77;;;9.50;;
32810;SDS011;65470;47.324;8.548;2023-06-26T01:20:00;9.77;;;8.77;;
32810;SDS011;65470;47.324;8.548;2023-06-26T01:22:37;10.15;;;9.15;;
32810;SDS011;65470;47.324;8.548;2023-06-26T01:28:16;9.48;;;8.57;;
32810;SDS011;65470;47.324;8.548;2023-06-26T01:30:44;10.93;;;9.82;;
32810;SDS011;65470;47.324;8.548;2023-06-26T01:33:11;12.18;;;10.50;;
32810;SDS011;65470;47.324;8.548;2023-06-26T01:35:38;10.65;;;9.63;;
32810;SDS011;65470;47.324;8.548;2023-06-26T01:38:18;11.50;;;9.25;;
32810;SDS011;65470;47.324;8.548;2023-06-26T01:40:45;10.50;;;9.25;;
32810;SDS011;65470;47.324;8.548;2023-06-26T01:43:15;14.13;;;9.35;;
32810;SDS011;65470;47.324;8.548;2023-06-26T01:46:09;10.00;;;9.10;;
32810;SDS011;65470;47.324;8.548;2023-06-26T01:51:42;10.32;;;9.38;;
32810;SDS011;65470;47.324;8.548;2023-06-26T01:54:19;12.85;;;9.90;;
32810;SDS011;65470;47.324;8.548;2023-06-26T01:56:49;11.68;;;9.43;;
32810;SDS011;65470;47.324;8.548;2023-06-26T01:59:17;10.95;;;9.85;;
32810;SDS011;65470;47.324;8.548;2023-06-26T02:05:07;10.63;;;9.57;;
32810;SDS011;65470;47.324;8.548;2023-06-26T02:07:33;10.70;;;9.68;;
32810;SDS011;65470;47.324;8.548;2023-06-26T02:09:59;10.25;;;9.15;;
32810;SDS011;65470;47.324;8.548;2023-06-26T02:12:25;9.85;;;8.85;;
32810;SDS011;65470;47.324;8.548;2023-06-26T02:14:50;12.68;;;10.15;;
32810;SDS011;65470;47.324;8.548;2023-06-26T02:17:16;11.00;;;9.90;;
32810;SDS011;65470;47.324;8.548;2023-06-26T02:19:42;10.20;;;9.20;;
32810;SDS011;65470;47.324;8.548;2023-06-26T02:22:12;10.88;;;9.82;;
32810;SDS011;65470;47.324;8.548;2023-06-26T02:24:39;10.02;;;9.02;;
32810;SDS011;65470;47.324;8.548;2023-06-26T02:27:05;10.80;;;9.83;;
32810;SDS011;65470;47.324;8.548;2023-06-26T02:29:31;11.65;;;9.82;;
32810;SDS011;65470;47.324;8.548;2023-06-26T02:31:56;10.00;;;8.95;;
32810;SDS011;65470;47.324;8.548;2023-06-26T02:34:22;18.50;;;10.23;;
32810;SDS011;65470;47.324;8.548;2023-06-26T02:36:48;11.10;;;9.90;;
32810;SDS011;65470;47.324;8.548;2023-06-26T02:39:13;10.18;;;9.18;;
32810;SDS011;65470;47.324;8.548;2023-06-26T02:41:39;10.50;;;9.50;;
32810;SDS011;65470;47.324;8.548;2023-06-26T02:44:05;12.05;;;10.30;;
32810;SDS011;65470;47.324;8.548;2023-06-26T02:46:31;11.30;;;9.93;;
32810;SDS011;65470;47.324;8.548;2023-06-26T02:48:58;12.52;;;9.95;;
32810;SDS011;65470;47.324;8.548;2023-06-26T02:51:24;10.70;;;9.40;;
32810;SDS011;65470;47.324;8.548;2023-06-26T02:53:50;11.90;;;10.70;;
32810;SDS011;65470;47.324;8.548;2023-06-26T02:56:15;11.20;;;10.20;;
32810;SDS011;65470;47.324;8.548;2023-06-26T02:58:41;10.27;;;9.40;;
32810;SDS011;65470;47.324;8.548;2023-06-26T03:01:06;11.00;;;9.68;;
32810;SDS011;65470;47.324;8.548;2023-06-26T03:03:32;13.82;;;9.82;;
32810;SDS011;65470;47.324;8.548;2023-06-26T03:06:05;11.50;;;10.30;;
32810;SDS011;65470;47.324;8.548;2023-06-26T03:08:32;11.77;;;10.57;;
32810;SDS011;65470;47.324;8.548;2023-06-26T03:10:58;11.23;;;10.15;;
32810;SDS011;65470;47.324;8.548;2023-06-26T03:13:23;12.10;;;10.90;;
32810;SDS011;65470;47.324;8.548;2023-06-26T03:15:49;14.38;;;10.63;;
32810;SDS011;65470;47.324;8.548;2023-06-26T03:18:14;13.23;;;10.93;;
32810;SDS011;65470;47.324;8.548;2023-06-26T03:20:40;11.93;;;10.70;;
32810;SDS011;65470;47.324;8.548;2023-06-26T03:23:05;12.00;;;10.80;;
32810;SDS011;65470;47.324;8.548;2023-06-26T03:25:31;11.55;;;10.45;;
32810;SDS011;65470;47.324;8.548;2023-06-26T03:27:57;10.77;;;9.88;;
32810;SDS011;65470;47.324;8.548;2023-06-26T03:30:22;12.32;;;11.18;;
32810;SDS011;65470;47.324;8.548;2023-06-26T03:32:48;12.75;;;11.27;;
32810;SDS011;65470;47.324;8.548;2023-06-26T03:35:14;12.05;;;10.85;;
32810;SDS011;65470;47.324;8.548;2023-06-26T03:37:39;12.40;;;10.82;;
32810;SDS011;65470;47.324;8.548;2023-06-26T03:40:05;12.02;;;10.30;;
32810;SDS011;65470;47.324;8.548;2023-06-26T03:42:31;11.38;;;10.35;;
32810;SDS011;65470;47.324;8.548;2023-06-26T03:44:57;12.77;;;11.55;;
32810;SDS011;65470;47.324;8.548;2023-06-26T03:47:23;11.45;;;10.27;;
32810;SDS011;65470;47.324;8.548;2023-06-26T03:49:48;12.00;;;10.88;;
32810;SDS011;65470;47.324;8.548;2023-06-26T03:52:14;11.30;;;10.20;;
32810;SDS011;65470;47.324;8.548;2023-06-26T03:54:39;11.43;;;10.18;;
32810;SDS011;65470;47.324;8.548;2023-06-26T03:57:05;13.60;;;10.57;;
32810;SDS011;65470;47.324;8.548;2023-06-26T03:59:30;11.57;;;10.48;;
32810;SDS011;65470;47.324;8.548;2023-06-26T04:01:56;12.15;;;11.05;;
32810;SDS011;65470;47.324;8.548;2023-06-26T04:04:22;13.27;;;11.77;;
32810;SDS011;65470;47.324;8.548;2023-06-26T04:06:47;13.50;;;11.57;;
32810;SDS011;65470;47.324;8.548;2023-06-26T04:09:13;12.63;;;11.48;;
32810;SDS011;65470;47.324;8.548;2023-06-26T04:11:38;12.90;;;11.18;;
32810;SDS011;65470;47.324;8.548;2023-06-26T04:14:04;12.13;;;10.70;;
32810;SDS011;65470;47.324;8.548;2023-06-26T04:16:30;11.60;;;10.50;;
32810;SDS011;65470;47.324;8.548;2023-06-26T04:18:55;11.18;;;10.07;;
32810;SDS011;65470;47.324;8.548;2023-06-26T04:21:21;12.98;;;11.52;;
32810;SDS011;65470;47.324;8.548;2023-06-26T04:23:50;12.05;;;10.82;;
32810;SDS011;65470;47.324;8.548;2023-06-26T04:26:16;12.10;;;10.93;;
32810;SDS011;65470;47.324;8.548;2023-06-26T04:28:42;11.57;;;10.40;;
32810;SDS011;65470;47.324;8.548;2023-06-26T04:31:08;13.35;;;10.63;;
32810;SDS011;65470;47.324;8.548;2023-06-26T04:33:34;12.05;;;10.38;;
32810;SDS011;65470;47.324;8.548;2023-06-26T04:36:01;12.50;;;10.70;;
32810;SDS011;65470;47.324;8.548;2023-06-26T04:38:28;10.82;;;9.75;;
32810;SDS011;65470;47.324;8.548;2023-06-26T04:40:55;10.43;;;9.43;;
32810;SDS011;65470;47.324;8.548;2023-06-26T04:43:20;12.60;;;11.15;;
32810;SDS011;65470;47.324;8.548;2023-06-26T04:45:46;12.68;;;11.00;;
32810;SDS011;65470;47.324;8.548;2023-06-26T04:48:12;11.40;;;9.82;;
32810;SDS011;65470;47.324;8.548;2023-06-26T04:50:37;11.85;;;10.32;;
32810;SDS011;65470;47.324;8.548;2023-06-26T04:53:03;10.80;;;9.80;;
32810;SDS011;65470;47.324;8.548;2023-06-26T04:55:29;12.63;;;10.25;;
32810;SDS011;65470;47.324;8.548;2023-06-26T04:57:55;11.85;;;10.65;;
32810;SDS011;65470;47.324;8.548;2023-06-26T05:00:21;11.13;;;10.02;;
32810;SDS011;65470;47.324;8.548;2023-06-26T05:02:47;11.55;;;10.52;;
32810;SDS011;65470;47.324;8.548;2023-06-26T05:05:13;11.80;;;10.60;;
32810;SDS011;65470;47.324;8.548;2023-06-26T05:07:40;11.60;;;10.52;;
32810;SDS011;65470;47.324;8.548;2023-06-26T05:10:07;11.68;;;10.48;;
32810;SDS011;65470;47.324;8.548;2023-06-26T05:12:33;12.52;;;10.90;;
32810;SDS011;65470;47.324;8.548;2023-06-26T05:14:58;13.93;;;10.80;;
32810;SDS011;65470;47.324;8.548;2023-06-26T05:17:24;11.82;;;10.63;;
32810;SDS011;65470;47.324;8.548;2023-06-26T05:19:50;12.80;;;10.50;;
32810;SDS011;65470;47.324;8.548;2023-06-26T05:22:16;11.18;;;10.05;;
32810;SDS011;65470;47.324;8.548;2023-06-26T05:24:42;12.65;;;10.48;;
32810;SDS011;65470;47.324;8.548;2023-06-26T05:27:11;12.52;;;11.23;;
32810;SDS011;65470;47.324;8.548;2023-06-26T05:29:44;14.35;;;11.15;;
32810;SDS011;65470;47.324;8.548;2023-06-26T05:32:10;11.80;;;10.73;;
32810;SDS011;65470;47.324;8.548;2023-06-26T05:34:37;11.73;;;10.63;;
32810;SDS011;65470;47.324;8.548;2023-06-26T05:37:04;12.88;;;11.60;;
32810;SDS011;65470;47.324;8.548;2023-06-26T05:39:31;11.85;;;10.55;;
32810;SDS011;65470;47.324;8.548;2023-06-26T05:41:57;10.38;;;9.38;;
32810;SDS011;65470;47.324;8.548;2023-06-26T05:44:23;14.27;;;10.68;;
32810;SDS011;65470;47.324;8.548;2023-06-26T05:46:49;13.15;;;10.27;;
32810;SDS011;65470;47.324;8.548;2023-06-26T05:49:14;11.25;;;10.25;;
32810;SDS011;65470;47.324;8.548;2023-06-26T05:51:40;13.85;;;9.88;;
32810;SDS011;65470;47.324;8.548;2023-06-26T05:54:06;11.30;;;10.25;;
32810;SDS011;65470;47.324;8.548;2023-06-26T05:56:32;11.30;;;10.20;;
32810;SDS011;65470;47.324;8.548;2023-06-26T05:58:58;11.85;;;10.65;;
32810;SDS011;65470;47.324;8.548;2023-06-26T06:01:24;11.93;;;10.43;;
32810;SDS011;65470;47.324;8.548;2023-06-26T06:03:50;10.90;;;9.90;;
32810;SDS011;65470;47.324;8.548;2023-06-26T06:06:15;10.95;;;9.85;;
32810;SDS011;65470;47.324;8.548;2023-06-26T06:08:41;10.57;;;9.57;;
32810;SDS011;65470;47.324;8.548;2023-06-26T06:11:07;11.18;;;10.10;;
32810;SDS011;65470;47.324;8.548;2023-06-26T06:13:32;10.73;;;8.95;;
32810;SDS011;65470;47.324;8.548;2023-06-26T06:15:58;11.55;;;10.05;;
32810;SDS011;65470;47.324;8.548;2023-06-26T06:18:26;10.40;;;9.50;;
32810;SDS011;65470;47.324;8.548;2023-06-26T06:20:52;10.05;;;9.05;;
32810;SDS011;65470;47.324;8.548;2023-06-26T06:23:17;11.25;;;10.05;;
32810;SDS011;65470;47.324;8.548;2023-06-26T06:25:43;10.88;;;9.88;;
32810;SDS011;65470;47.324;8.548;2023-06-26T06:28:09;11.43;;;10.32;;
32810;SDS011;65470;47.324;8.548;2023-06-26T06:30:34;15.20;;;10.93;;
32810;SDS011;65470;47.324;8.548;2023-06-26T06:33:01;11.95;;;8.73;;
32810;SDS011;65470;47.324;8.548;2023-06-26T06:35:27;10.20;;;9.18;;
32810;SDS011;65470;47.324;8.548;2023-06-26T06:37:52;10.55;;;9.45;;
32810;SDS011;65470;47.324;8.548;2023-06-26T06:40:18;10.35;;;9.38;;
32810;SDS011;65470;47.324;8.548;2023-06-26T06:42:43;10.20;;;9.02;;
32810;SDS011;65470;47.324;8.548;2023-06-26T06:45:09;10.07;;;9.15;;
32810;SDS011;65470;47.324;8.548;2023-06-26T06:47:35;13.10;;;9.02;;
32810;SDS011;65470;47.324;8.548;2023-06-26T06:50:00;10.20;;;9.23;;
32810;SDS011;65470;47.324;8.548;2023-06-26T06:52:38;9.32;;;8.48;;
32810;SDS011;65470;47.324;8.548;2023-06-26T06:55:05;10.23;;;9.18;;
32810;SDS011;65470;47.324;8.548;2023-06-26T06:57:33;10.45;;;9.38;;
32810;SDS011;65470;47.324;8.548;2023-06-26T07:00:04;10.15;;;8.95;;
32810;SDS011;65470;47.324;8.548;2023-06-26T07:02:35;10.18;;;9.07;;
32810;SDS011;65470;47.324;8.548;2023-06-26T07:05:01;9.32;;;8.43;;
32810;SDS011;65470;47.324;8.548;2023-06-26T07:07:29;14.68;;;9.68;;
32810;SDS011;65470;47.324;8.548;2023-06-26T07:09:57;8.77;;;7.97;;
32810;SDS011;65470;47.324;8.548;2023-06-26T07:12:27;9.32;;;8.52;;
32810;SDS011;65470;47.324;8.548;2023-06-26T07:14:53;9.77;;;8.77;;
32810;SDS011;65470;47.324;8.548;2023-06-26T07:17:20;12.57;;;8.18;;
32810;SDS011;65470;47.324;8.548;2023-06-26T07:19:46;9.85;;;8.85;;
32810;SDS011;65470;47.324;8.548;2023-06-26T07:22:12;9.32;;;8.30;;
32810;SDS011;65470;47.324;8.548;2023-06-26T07:24:37;10.02;;;8.48;;
32810;SDS011;65470;47.324;8.548;2023-06-26T07:27:03;10.73;;;9.65;;
32810;SDS011;65470;47.324;8.548;2023-06-26T07:29:29;15.57;;;10.10;;
32810;SDS011;65470;47.324;8.548;2023-06-26T07:31:54;12.65;;;9.50;;
32810;SDS011;65470;47.324;8.548;2023-06-26T07:34:20;8.75;;;8.05;;
32810;SDS011;65470;47.324;8.548;2023-06-26T07:36:46;8.93;;;8.13;;
32810;SDS011;65470;47.324;8.548;2023-06-26T07:39:11;9.25;;;8.35;;
32810;SDS011;65470;47.324;8.548;2023-06-26T07:41:37;10.43;;;8.55;;
32810;SDS011;65470;47.324;8.548;2023-06-26T07:44:03;9.73;;;8.80;;
32810;SDS011;65470;47.324;8.548;2023-06-26T07:46:28;10.07;;;8.20;;
32810;SDS011;65470;47.324;8.548;2023-06-26T07:48:54;11.13;;;8.88;;
32810;SDS011;65470;47.324;8.548;2023-06-26T07:51:20;10.18;;;8.57;;
32810;SDS011;65470;47.324;8.548;2023-06-26T07:53:46;14.20;;;8.40;;
32810;SDS011;65470;47.324;8.548;2023-06-26T07:56:12;10.57;;;8.50;;
32810;SDS011;65470;47.324;8.548;2023-06-26T07:58:37;13.52;;;8.82;;
32810;SDS011;65470;47.324;8.548;2023-06-26T08:01:03;9.38;;;8.48;;
32810;SDS011;65470;47.324;8.548;2023-06-26T08:03:28;11.13;;;8.40;;
32810;SDS011;65470;47.324;8.548;2023-06-26T08:05:54;9.13;;;8.32;;
32810;SDS011;65470;47.324;8.548;2023-06-26T08:08:20;12.02;;;9.23;;
32810;SDS011;65470;47.324;8.548;2023-06-26T08:10:45;8.73;;;7.95;;
32810;SDS011;65470;47.324;8.548;2023-06-26T08:13:11;9.60;;;7.65;;
32810;SDS011;65470;47.324;8.548;2023-06-26T08:15:37;10.73;;;8.45;;
32810;SDS011;65470;47.324;8.548;2023-06-26T08:18:02;9.45;;;8.45;;
32810;SDS011;65470;47.324;8.548;2023-06-26T08:20:28;8.70;;;7.85;;
32810;SDS011;65470;47.324;8.548;2023-06-26T08:22:54;8.70;;;7.85;;
32810;SDS011;65470;47.324;8.548;2023-06-26T08:25:20;8.65;;;7.57;;
32810;SDS011;65470;47.324;8.548;2023-06-26T08:27:46;8.90;;;8.18;;
32810;SDS011;65470;47.324;8.548;2023-06-26T08:30:11;8.82;;;7.93;;
32810;SDS011;65470;47.324;8.548;2023-06-26T08:32:39;9.00;;;8.20;;
32810;SDS011;65470;47.324;8.548;2023-06-26T08:35:05;8.55;;;7.55;;
32810;SDS011;65470;47.324;8.548;2023-06-26T08:37:31;13.25;;;7.88;;
32810;SDS011;65470;47.324;8.548;2023-06-26T08:39:59;11.13;;;8.30;;
32810;SDS011;65470;47.324;8.548;2023-06-26T08:42:25;11.13;;;8.45;;
32810;SDS011;65470;47.324;8.548;2023-06-26T08:44:50;8.48;;;7.80;;
32810;SDS011;65470;47.324;8.548;2023-06-26T08:47:17;8.90;;;8.10;;
32810;SDS011;65470;47.324;8.548;2023-06-26T08:52:11;9.77;;;8.70;;
32810;SDS011;65470;47.324;8.548;2023-06-26T08:54:43;8.15;;;7.43;;
32810;SDS011;65470;47.324;8.548;2023-06-26T08:57:12;8.25;;;7.55;;
32810;SDS011;65470;47.324;8.548;2023-06-26T08:59:42;8.85;;;7.53;;
32810;SDS011;65470;47.324;8.548;2023-06-26T09:02:08;8.57;;;7.65;;
32810;SDS011;65470;47.324;8.548;2023-06-26T09:04:34;9.07;;;8.18;;
32810;SDS011;65470;47.324;8.548;2023-06-26T09:07:00;9.35;;;8.55;;
32810;SDS011;65470;47.324;8.548;2023-06-26T09:09:26;8.90;;;8.02;;
32810;SDS011;65470;47.324;8.548;2023-06-26T09:11:53;9.30;;;8.38;;
32810;SDS011;65470;47.324;8.548;2023-06-26T09:14:20;12.55;;;8.50;;
32810;SDS011;65470;47.324;8.548;2023-06-26T09:16:46;9.73;;;8.57;;
32810;SDS011;65470;47.324;8.548;2023-06-26T09:19:12;12.57;;;8.77;;
32810;SDS011;65470;47.324;8.548;2023-06-26T09:21:39;8.98;;;8.15;;
32810;SDS011;65470;47.324;8.548;2023-06-26T09:24:06;7.97;;;7.20;;
32810;SDS011;65470;47.324;8.548;2023-06-26T09:26:34;9.82;;;8.85;;
32810;SDS011;65470;47.324;8.548;2023-06-26T09:29:04;9.13;;;8.23;;
32810;SDS011;65470;47.324;8.548;2023-06-26T09:31:30;8.73;;;7.88;;
32810;SDS011;65470;47.324;8.548;2023-06-26T09:34:00;10.43;;;9.43;;
32810;SDS011;65470;47.324;8.548;2023-06-26T09:36:27;12.02;;;8.52;;
32810;SDS011;65470;47.324;8.548;2023-06-26T09:38:54;8.60;;;7.90;;
32810;SDS011;65470;47.324;8.548;2023-06-26T09:41:20;9.25;;;7.72;;
32810;SDS011;65470;47.324;8.548;2023-06-26T09:43:49;8.43;;;7.72;;
32810;SDS011;65470;47.324;8.548;2023-06-26T09:46:16;7.78;;;7.07;;
32810;SDS011;65470;47.324;8.548;2023-06-26T09:48:48;10.23;;;7.90;;
32810;SDS011;65470;47.324;8.548;2023-06-26T09:51:16;9.85;;;7.20;;
32810;SDS011;65470;47.324;8.548;2023-06-26T09:53:47;9.00;;;8.07;;
32810;SDS011;65470;47.324;8.548;2023-06-26T09:56:17;8.00;;;7.30;;
32810;SDS011;65470;47.324;8.548;2023-06-26T09:58:43;8.23;;;7.45;;
32810;SDS011;65470;47.324;8.548;2023-06-26T10:01:09;9.80;;;8.82;;
32810;SDS011;65470;47.324;8.548;2023-06-26T10:03:35;8.32;;;7.53;;
32810;SDS011;65470;47.324;8.548;2023-06-26T10:06:02;8.00;;;7.30;;
32810;SDS011;65470;47.324;8.548;2023-06-26T10:08:28;7.75;;;7.05;;
32810;SDS011;65470;47.324;8.548;2023-06-26T10:10:55;8.10;;;7.40;;
32810;SDS011;65470;47.324;8.548;2023-06-26T10:13:24;9.57;;;7.25;;
32810;SDS011;65470;47.324;8.548;2023-06-26T10:16:13;8.05;;;7.18;;
32810;SDS011;65470;47.324;8.548;2023-06-26T10:18:45;8.00;;;7.13;;
32810;SDS011;65470;47.324;8.548;2023-06-26T10:21:11;8.50;;;6.75;;
32810;SDS011;65470;47.324;8.548;2023-06-26T10:23:38;9.02;;;7.63;;
32810;SDS011;65470;47.324;8.548;2023-06-26T10:26:06;7.88;;;7.07;;
32810;SDS011;65470;47.324;8.548;2023-06-26T10:28:33;9.00;;;7.28;;
32810;SDS011;65470;47.324;8.548;2023-06-26T10:31:01;7.80;;;7.05;;
32810;SDS011;65470;47.324;8.548;2023-06-26T10:33:29;7.90;;;7.20;;
32810;SDS011;65470;47.324;8.548;2023-06-26T10:36:11;8.52;;;7.07;;
32810;SDS011;65470;47.324;8.548;2023-06-26T10:38:55;9.88;;;7.03;;
32810;SDS011;65470;47.324;8.548;2023-06-26T10:41:22;7.82;;;6.78;;
32810;SDS011;65470;47.324;8.548;2023-06-26T10:43:49;19.98;;;7.78;;
32810;SDS011;65470;47.324;8.548;2023-06-26T10:46:32;7.75;;;7.00;;
32810;SDS011;65470;47.324;8.548;2023-06-26T10:49:15;8.85;;;7.10;;
32810;SDS011;65470;47.324;8.548;2023-06-26T10:51:45;8.55;;;7.75;;
32810;SDS011;65470;47.324;8.548;2023-06-26T10:54:15;8.18;;;7.35;;
32810;SDS011;65470;47.324;8.548;2023-06-26T10:56:42;8.27;;;7.47;;
32810;SDS011;65470;47.324;8.548;2023-06-26T11:01:42;9.40;;;7.78;;
32810;SDS011;65470;47.324;8.548;2023-06-26T11:04:08;7.57;;;6.90;;
32810;SDS011;65470;47.324;8.548;2023-06-26T11:06:35;8.15;;;7.40;;
32810;SDS011;65470;47.324;8.548;2023-06-26T11:14:21;8.60;;;7.47;;
32810;SDS011;65470;47.324;8.548;2023-06-26T11:16:48;7.95;;;7.13;;
32810;SDS011;65470;47.324;8.548;2023-06-26T11:19:14;9.90;;;7.25;;
32810;SDS011;65470;47.324;8.548;2023-06-26T11:21:41;7.90;;;7.03;;
32810;SDS011;65470;47.324;8.548;2023-06-26T11:24:08;7.50;;;6.80;;
32810;SDS011;65470;47.324;8.548;2023-06-26T11:26:41;8.07;;;7.40;;
32810;SDS011;65470;47.324;8.548;2023-06-26T11:29:08;10.32;;;7.47;;
32810;SDS011;65470;47.324;8.548;2023-06-26T11:31:34;8.00;;;7.30;;
32810;SDS011;65470;47.324;8.548;2023-06-26T11:34:05;8.77;;;7.80;;
32810;SDS011;65470;47.324;8.548;2023-06-26T11:36:33;9.07;;;7.53;;
32810;SDS011;65470;47.324;8.548;2023-06-26T11:39:02;9.85;;;7.78;;
32810;SDS011;65470;47.324;8.548;2023-06-26T11:41:31;8.73;;;7.55;;
32810;SDS011;65470;47.324;8.548;2023-06-26T11:44:01;11.27;;;7.93;;
32810;SDS011;65470;47.324;8.548;2023-06-26T11:46:31;8.93;;;8.13;;
32810;SDS011;65470;47.324;8.548;2023-06-26T11:48:58;8.57;;;7.65;;
32810;SDS011;65470;47.324;8.548;2023-06-26T11:51:26;8.65;;;7.80;;
32810;SDS011;65470;47.324;8.548;2023-06-26T11:53:52;9.23;;;8.43;;
32810;SDS011;65470;47.324;8.548;2023-06-26T11:56:18;9.23;;;8.13;;
32810;SDS011;65470;47.324;8.548;2023-06-26T12:01:34;8.73;;;7.82;;
32810;SDS011;65470;47.324;8.548;2023-06-26T12:04:05;10.07;;;9.18;;
32810;SDS011;65470;47.324;8.548;2023-06-26T12:06:33;9.82;;;8.77;;
32810;SDS011;65470;47.324;8.548;2023-06-26T12:09:03;10.35;;;8.93;;
32810;SDS011;65470;47.324;8.548;2023-06-26T12:11:31;9.65;;;8.70;;
32810;SDS011;65470;47.324;8.548;2023-06-26T12:13:59;10.70;;;9.27;;
32810;SDS011;65470;47.324;8.548;2023-06-26T12:16:27;11.60;;;9.77;;
32810;SDS011;65470;47.324;8.548;2023-06-26T12:19:00;11.55;;;9.25;;
32810;SDS011;65470;47.324;8.548;2023-06-26T12:24:06;10.20;;;9.23;;
32810;SDS011;65470;47.324;8.548;2023-06-26T12:26:34;9.93;;;8.93;;
32810;SDS011;65470;47.324;8.548;2023-06-26T12:29:03;10.25;;;9.25;;
32810;SDS011;65470;47.324;8.548;2023-06-26T12:31:33;18.33;;;9.73;;
32810;SDS011;65470;47.324;8.548;2023-06-26T12:33:59;16.65;;;9.32;;
32810;SDS011;65470;47.324;8.548;2023-06-26T12:36:25;11.40;;;8.27;;
32810;SDS011;65470;47.324;8.548;2023-06-26T12:38:52;11.57;;;9.55;;
32810;SDS011;65470;47.324;8.548;2023-06-26T12:41:19;10.15;;;9.10;;
32810;SDS011;65470;47.324;8.548;2023-06-26T12:43:48;12.70;;;9.20;;
32810;SDS011;65470;47.324;8.548;2023-06-26T12:46:15;12.23;;;8.90;;
32810;SDS011;65470;47.324;8.548;2023-06-26T12:48:43;11.00;;;7.70;;
32810;SDS011;65470;47.324;8.548;2023-06-26T12:51:12;10.98;;;9.30;;
32810;SDS011;65470;47.324;8.548;2023-06-26T12:53:41;14.93;;;9.15;;
32810;SDS011;65470;47.324;8.548;2023-06-26T12:56:10;13.02;;;8.85;;
32810;SDS011;65470;47.324;8.548;2023-06-26T12:58:36;10.35;;;8.82;;
32810;SDS011;65470;47.324;8.548;2023-06-26T13:01:03;9.68;;;8.77;;
32810;SDS011;65470;47.324;8.548;2023-06-26T13:03:30;14.88;;;9.35;;
32810;SDS011;65470;47.324;8.548;2023-06-26T13:05:56;11.80;;;8.65;;
32810;SDS011;65470;47.324;8.548;2023-06-26T13:08:22;9.88;;;8.98;;
32810;SDS011;65470;47.324;8.548;2023-06-26T13:10:47;10.27;;;8.52;;
32810;SDS011;65470;47.324;8.548;2023-06-26T13:13:13;10.73;;;9.18;;
32810;SDS011;65470;47.324;8.548;2023-06-26T13:15:39;10.82;;;8.90;;
32810;SDS011;65470;47.324;8.548;2023-06-26T13:18:04;10.57;;;8.90;;
32810;SDS011;65470;47.324;8.548;2023-06-26T13:20:30;15.05;;;8.00;;
32810;SDS011;65470;47.324;8.548;2023-06-26T13:22:56;9.98;;;7.88;;
32810;SDS011;65470;47.324;8.548;2023-06-26T13:25:22;12.57;;;8.73;;
32810;SDS011;65470;47.324;8.548;2023-06-26T13:27:48;9.70;;;8.80;;
32810;SDS011;65470;47.324;8.548;2023-06-26T13:30:14;10.52;;;8.55;;
32810;SDS011;65470;47.324;8.548;2023-06-26T13:32:40;10.73;;;8.05;;
32810;SDS011;65470;47.324;8.548;2023-06-26T13:35:06;9.30;;;8.40;;
32810;SDS011;65470;47.324;8.548;2023-06-26T13:37:32;12.15;;;8.50;;
32810;SDS011;65470;47.324;8.548;2023-06-26T13:40:01;10.00;;;7.88;;
32810;SDS011;65470;47.324;8.548;2023-06-26T13:42:28;14.18;;;8.38;;
32810;SDS011;65470;47.324;8.548;2023-06-26T13:44:54;8.80;;;7.90;;
32810;SDS011;65470;47.324;8.548;2023-06-26T13:47:19;9.73;;;8.35;;
32810;SDS011;65470;47.324;8.548;2023-06-26T13:49:46;9.88;;;8.02;;
32810;SDS011;65470;47.324;8.548;2023-06-26T13:52:11;9.00;;;7.88;;
32810;SDS011;65470;47.324;8.548;2023-06-26T13:54:37;12.82;;;8.43;;
32810;SDS011;65470;47.324;8.548;2023-06-26T13:57:05;11.70;;;9.20;;
32810;SDS011;65470;47.324;8.548;2023-06-26T13:59:31;9.50;;;6.93;;
32810;SDS011;65470;47.324;8.548;2023-06-26T14:01:57;9.32;;;7.55;;
32810;SDS011;65470;47.324;8.548;2023-06-26T14:04:24;10.90;;;8.82;;
32810;SDS011;65470;47.324;8.548;2023-06-26T14:06:50;9.00;;;8.05;;
32810;SDS011;65470;47.324;8.548;2023-06-26T14:09:15;9.98;;;7.35;;
32810;SDS011;65470;47.324;8.548;2023-06-26T14:11:41;8.82;;;7.97;;
32810;SDS011;65470;47.324;8.548;2023-06-26T14:14:07;10.27;;;7.72;;
32810;SDS011;65470;47.324;8.548;2023-06-26T14:16:32;8.20;;;7.43;;
32810;SDS011;65470;47.324;8.548;2023-06-26T14:18:58;9.88;;;8.77;;
32810;SDS011;65470;47.324;8.548;2023-06-26T14:21:24;8.90;;;8.10;;
32810;SDS011;65470;47.324;8.548;2023-06-26T14:23:49;8.20;;;7.38;;
32810;SDS011;65470;47.324;8.548;2023-06-26T14:26:15;9.38;;;8.52;;
32810;SDS011;65470;47.324;8.548;2023-06-26T14:28:41;9.73;;;7.93;;
32810;SDS011;65470;47.324;8.548;2023-06-26T14:31:06;8.23;;;7.35;;
32810;SDS011;65470;47.324;8.548;2023-06-26T14:33:32;8.30;;;7.60;;
32810;SDS011;65470;47.324;8.548;2023-06-26T14:35:57;8.23;;;7.43;;
32810;SDS011;65470;47.324;8.548;2023-06-26T14:38:23;9.27;;;8.05;;
32810;SDS011;65470;47.324;8.548;2023-06-26T14:40:48;11.30;;;7.93;;
32810;SDS011;65470;47.324;8.548;2023-06-26T14:43:14;13.05;;;9.00;;
32810;SDS011;65470;47.324;8.548;2023-06-26T14:45:40;8.57;;;7.68;;
32810;SDS011;65470;47.324;8.548;2023-06-26T14:48:06;12.70;;;8.40;;
32810;SDS011;65470;47.324;8.548;2023-06-26T14:50:32;9.02;;;8.10;;
32810;SDS011;65470;47.324;8.548;2023-06-26T14:52:58;8.52;;;6.95;;
32810;SDS011;65470;47.324;8.548;2023-06-26T14:55:24;10.05;;;8.00;;
32810;SDS011;65470;47.324;8.548;2023-06-26T14:57:50;7.88;;;7.10;;
32810;SDS011;65470;47.324;8.548;2023-06-26T15:00:16;8.45;;;7.43;;